Time;durP1;ratioP1;P1;durP2;ratioP2;P2;SDS_P1;SDS_P2;PMS_P1;PMS_P2;Temp;Humidity;BMP_temperature;BMP_pressure;BME280_temperature;BME280_humidity;BME280_pressure;Samples;Min_cycle;Max_cycle;Signal;HPM_P1;HPM_P2
2022/03/17 00:03:45;;;;;;;42.30;30.50;;;;;;;7.79;57.86;98870.44;12860247;23;20017;-81
2022/03/17 00:09:07;;;;;;;41.40;30.92;;;;;;;7.73;58.10;98887.31;12822868;23;20036;-79
2022/03/17 00:14:28;;;;;;;44.08;32.60;;;;;;;7.78;58.36;98882.13;12822762;23;20013;-82
2022/03/17 00:19:49;;;;;;;38.22;29.95;;;;;;;7.70;58.30;98874.47;12864266;23;20005;-80
2022/03/17 00:25:10;;;;;;;41.03;31.17;;;;;;;7.65;58.21;98872.63;12843708;23;20023;-78
2022/03/17 00:30:31;;;;;;;40.90;28.90;;;;;;;7.54;58.27;98867.38;12802400;23;20021;-82
2022/03/17 00:35:52;;;;;;;37.85;29.83;;;;;;;7.42;57.83;98880.81;12823424;23;20001;-79
2022/03/17 00:41:13;;;;;;;40.83;28.13;;;;;;;7.41;58.22;98881.38;12843417;23;20052;-77
2022/03/17 00:46:34;;;;;;;42.85;31.38;;;;;;;7.38;58.65;98879.69;12863733;23;20004;-80
2022/03/17 00:51:55;;;;;;;39.15;29.38;;;;;;;7.33;58.46;98883.34;12822747;23;20005;-80
2022/03/17 00:57:16;;;;;;;40.45;30.83;;;;;;;7.30;58.81;98890.00;12801640;23;20040;-82
2022/03/17 01:02:37;;;;;;;37.53;29.17;;;;;;;7.25;58.66;98902.00;12822609;23;20012;-80
2022/03/17 01:07:59;;;;;;;38.95;30.10;;;;;;;7.15;59.18;98898.97;12802173;23;20005;-77
2022/03/17 01:13:20;;;;;;;40.30;29.52;;;;;;;7.04;59.17;98899.97;12819291;23;20045;-83
2022/03/17 01:18:41;;;;;;;40.58;29.30;;;;;;;6.98;59.24;98888.28;12840325;23;20028;-79
2022/03/17 01:24:03;;;;;;;38.55;29.92;;;;;;;6.94;59.40;98876.78;12799418;23;20032;-77
2022/03/17 01:29:26;;;;;;;44.45;32.88;;;;;;;6.93;59.60;98864.19;12819400;23;20033;-82
2022/03/17 01:34:48;;;;;;;41.95;31.70;;;;;;;6.89;60.13;98864.53;12840248;23;20017;-80
2022/03/17 01:40:09;;;;;;;41.50;29.98;;;;;;;6.87;59.84;98864.34;12860484;23;20017;-81
2022/03/17 01:45:31;;;;;;;42.95;31.90;;;;;;;6.75;60.09;98860.34;12798398;23;20001;-81
2022/03/17 01:50:54;;;;;;;38.15;29.30;;;;;;;6.70;60.13;98868.81;12859774;23;20005;-81
2022/03/17 01:56:15;;;;;;;44.37;33.53;;;;;;;6.59;60.17;98865.03;12854926;23;20029;-81
2022/03/17 02:01:38;;;;;;;44.90;32.80;;;;;;;6.59;60.49;98865.03;12818220;23;20021;-82
2022/03/17 02:07:00;;;;;;;50.35;34.45;;;;;;;6.59;60.59;98867.06;12798450;23;20009;-77
2022/03/17 02:56:15;;;;;;;47.90;34.13;;;;;;;6.14;61.03;98875.66;12797006;23;20009;-80
2022/03/17 03:07:52;;;;;;;;;;;;;;;6.01;61.87;98882.72;12800445;22;20047;-81
2022/03/17 05:13:09;;;;;;;49.75;35.28;;;;;;;5.40;63.40;98893.00;12810808;23;20793;-81
2022/03/17 05:18:30;;;;;;;51.67;37.60;;;;;;;5.32;62.88;98883.81;12944034;22;20043;-81
2022/03/17 05:23:54;;;;;;;50.72;36.53;;;;;;;5.35;63.37;98888.28;12943509;22;20004;-80
2022/03/17 05:29:16;;;;;;;56.08;37.20;;;;;;;5.29;63.39;98873.78;12963966;22;20030;-82
2022/03/17 05:34:36;;;;;;;48.70;34.80;;;;;;;5.32;63.81;98872.00;12985584;22;20020;-78
2022/03/17 05:39:57;;;;;;;54.15;37.65;;;;;;;5.27;63.50;98881.88;12943008;22;20000;-80
2022/03/17 07:13:42;;;;;;;56.80;38.70;;;;;;;7.47;60.70;98945.88;12853243;22;20032;-81
2022/03/17 07:37:50;;;;;;;54.35;40.92;;;;;;;8.73;58.98;98971.13;12755374;23;19937;-84
2022/03/17 07:43:11;;;;;;;58.92;39.15;;;;;;;8.94;58.97;98976.56;12714078;23;20025;-82
2022/03/17 07:49:08;;;;;;;53.05;39.20;;;;;;;9.06;57.68;98981.22;12595396;23;20029;-82
2022/03/17 07:54:31;;;;;;;59.85;38.38;;;;;;;9.44;57.00;98977.69;12693924;23;20013;-81
2022/03/17 07:59:52;;;;;;;53.28;39.72;;;;;;;9.70;55.51;98985.69;12692818;23;20014;-84
2022/03/17 08:05:14;;;;;;;56.28;38.88;;;;;;;10.28;57.03;99000.63;12710818;23;20022;-81
2022/03/17 08:10:34;;;;;;;52.10;37.92;;;;;;;10.82;55.84;99006.72;12748406;23;20014;-83
2022/03/17 08:15:55;;;;;;;46.53;36.42;;;;;;;11.23;55.04;99006.66;12788418;23;20021;-84
2022/03/17 08:21:17;;;;;;;49.70;38.28;;;;;;;12.04;54.73;99014.19;12770816;23;20037;-82
2022/03/17 08:26:38;;;;;;;51.15;37.25;;;;;;;12.79;51.58;99025.09;12732875;23;20017;-82
2022/03/17 08:32:00;;;;;;;46.17;36.70;;;;;;;13.27;49.40;99018.28;12775393;23;20049;-78
2022/03/17 08:37:22;;;;;;;45.27;36.90;;;;;;;13.79;47.87;99021.53;12782067;23;20049;-83
2022/03/17 08:42:44;;;;;;;48.10;37.88;;;;;;;14.09;47.40;99025.91;12752414;23;20025;-79
2022/03/17 08:53:44;;;;;;;47.20;37.63;;;;;;;15.27;41.83;99028.00;12762015;23;20048;-82
2022/03/17 08:59:06;;;;;;;48.17;38.40;;;;;;;16.08;39.70;99029.97;12740056;23;20017;-83
2022/03/17 09:04:27;;;;;;;44.67;37.40;;;;;;;17.09;41.49;99032.97;12754681;23;20024;-85
2022/03/17 09:09:50;;;;;;;44.25;35.67;;;;;;;17.97;40.97;99031.28;12739513;23;20013;-84
2022/03/17 09:15:11;;;;;;;44.42;37.05;;;;;;;20.21;39.10;99031.41;12740488;23;20024;-84
2022/03/17 09:20:32;;;;;;;42.25;35.42;;;;;;;21.28;36.15;99040.81;12760544;23;20328;-82
2022/03/17 09:25:53;;;;;;;42.55;34.92;;;;;;;22.28;32.50;99043.81;12740044;23;20100;-83
2022/03/17 09:31:14;;;;;;;39.17;33.35;;;;;;;24.36;31.45;99033.88;12759745;23;20503;-82
2022/03/17 09:36:35;;;;;;;39.45;32.25;;;;;;;25.33;29.03;99050.50;12699366;23;20026;-83
2022/03/17 09:41:56;;;;;;;38.30;31.83;;;;;;;25.66;24.06;99041.47;12739645;23;20018;-82
2022/03/17 09:47:18;;;;;;;33.88;30.30;;;;;;;26.20;26.24;99046.53;12738708;23;20018;-82
2022/03/17 09:52:42;;;;;;;41.40;31.58;;;;;;;27.21;24.26;99044.69;12759081;23;20017;-82
2022/03/17 09:58:03;;;;;;;34.83;31.20;;;;;;;27.57;22.45;99051.19;12719292;23;20014;-81
2022/03/17 10:03:26;;;;;;;32.78;29.50;;;;;;;27.26;22.34;99049.09;12698487;23;20013;-82
2022/03/17 10:08:51;;;;;;;34.13;29.20;;;;;;;28.50;20.97;99040.78;12678734;23;20017;-83
2022/03/17 10:14:11;;;;;;;32.25;28.77;;;;;;;27.47;20.85;99035.91;12698569;23;20014;-80
2022/03/17 10:19:33;;;;;;;34.00;27.93;;;;;;;25.98;19.56;99037.34;12759041;23;20306;-81
2022/03/17 10:24:54;;;;;;;;;;;;;;;24.69;19.34;99039.22;12719072;23;20018;-79
2022/03/17 10:30:23;;;;;;;29.98;26.80;;;;;;;24.97;19.60;99035.81;12758305;23;19917;-81
2022/03/17 10:35:46;;;;;;;30.35;27.17;;;;;;;23.39;20.58;99024.03;12725840;23;20022;-79
2022/03/17 10:41:11;;;;;;;31.92;26.58;;;;;;;22.90;20.87;99027.13;12718525;23;20022;-79
2022/03/17 10:46:32;;;;;;;32.67;28.25;;;;;;;22.11;21.99;99038.13;12699181;23;20088;-86
2022/03/17 10:51:54;;;;;;;32.45;28.20;;;;;;;20.34;23.19;99027.81;12717821;23;20018;-87
2022/03/17 10:57:15;;;;;;;29.83;26.63;;;;;;;19.10;24.34;99021.38;12698186;23;20028;-87
2022/03/17 11:02:40;;;;;;;30.83;26.73;;;;;;;18.16;26.75;99024.63;12676959;23;20389;-86
2022/03/17 11:08:01;;;;;;;30.83;27.48;;;;;;;17.96;27.28;99024.16;12714900;23;20028;-83
2022/03/17 11:13:21;;;;;;;29.15;26.05;;;;;;;18.77;26.45;99028.09;12714873;23;20025;-86
2022/03/17 11:18:43;;;;;;;32.17;26.55;;;;;;;18.69;26.31;99024.81;12676695;23;20344;-84
2022/03/17 11:24:07;;;;;;;32.97;25.50;;;;;;;18.25;27.08;99017.34;12717004;23;20017;-85
2022/03/17 11:29:28;;;;;;;33.22;26.60;;;;;;;18.87;27.63;99025.09;12717191;23;20444;-79
2022/03/17 11:34:50;;;;;;;29.65;26.40;;;;;;;19.94;26.67;99021.56;12687283;23;20024;-81
2022/03/17 11:40:13;;;;;;;30.90;27.27;;;;;;;20.27;25.89;99026.78;12737782;23;20021;-79
2022/03/17 11:45:37;;;;;;;28.50;23.23;;;;;;;19.89;25.71;99027.69;12695906;23;20013;-80
2022/03/17 11:51:03;;;;;;;27.75;23.35;;;;;;;19.06;26.30;99024.00;12696913;23;20017;-79
2022/03/17 11:56:43;;;;;;;28.70;23.05;;;;;;;18.44;26.72;99019.13;12695765;23;20022;-81
2022/03/17 12:02:10;;;;;;;26.38;21.27;;;;;;;17.96;26.92;99024.16;12716177;23;20029;-81
2022/03/17 12:07:31;;;;;;;24.50;20.60;;;;;;;18.14;26.56;99015.25;12695336;23;20064;-82
2022/03/17 12:12:52;;;;;;;27.88;20.65;;;;;;;17.66;26.64;99025.13;12758324;23;20068;-81
2022/03/17 12:18:14;;;;;;;22.65;19.50;;;;;;;17.32;27.15;99020.97;12695693;23;20025;-82
2022/03/17 12:23:46;;;;;;;27.90;20.17;;;;;;;17.17;27.61;99022.91;12735519;23;20365;-81
2022/03/17 12:29:07;;;;;;;23.52;18.85;;;;;;;17.37;27.92;99017.03;12695244;23;20339;-84
2022/03/17 12:34:28;;;;;;;25.60;19.10;;;;;;;17.27;27.51;99014.31;12729302;23;20028;-80
2022/03/17 12:39:49;;;;;;;24.52;18.98;;;;;;;17.41;27.53;99011.66;12757533;23;20025;-83
2022/03/17 12:45:15;;;;;;;23.83;19.55;;;;;;;17.93;27.38;99013.34;12735966;23;20014;-83
2022/03/17 12:50:36;;;;;;;25.63;20.27;;;;;;;18.05;27.24;99005.59;12695297;23;20018;-85
2022/03/17 12:55:57;;;;;;;24.08;17.92;;;;;;;17.59;26.51;99000.72;12715788;23;20021;-81
2022/03/17 13:01:18;;;;;;;23.63;17.10;;;;;;;17.04;27.18;99000.22;12695485;23;20017;-82
2022/03/17 13:06:54;;;;;;;19.42;16.45;;;;;;;16.31;27.70;98999.13;12682633;23;20017;-82
2022/03/17 13:18:03;;;;;;;21.73;17.45;;;;;;;15.61;28.95;98993.78;12721827;23;20052;-78
2022/03/17 13:23:34;;;;;;;22.67;18.05;;;;;;;15.49;29.45;98980.97;12730990;23;20020;-79
2022/03/17 13:29:03;;;;;;;22.75;17.55;;;;;;;15.29;30.17;98980.31;12744907;23;20035;-78
2022/03/17 13:34:35;;;;;;;23.48;17.75;;;;;;;15.22;30.31;98981.97;12699636;23;20032;-78
2022/03/17 13:40:00;;;;;;;23.75;17.33;;;;;;;15.29;30.23;98974.69;12727893;23;20028;-79
2022/03/17 13:45:35;;;;;;;27.55;17.58;;;;;;;15.11;30.51;98974.91;12767771;23;20023;-79
2022/03/17 13:51:00;;;;;;;20.48;16.75;;;;;;;15.15;30.63;98972.38;12724855;23;20024;-78
2022/03/17 13:56:20;;;;;;;21.00;17.17;;;;;;;15.07;30.77;98965.47;12729025;23;20022;-78
2022/03/17 14:01:41;;;;;;;22.98;17.75;;;;;;;15.00;31.29;98972.72;12729835;23;20028;-78
2022/03/17 14:07:02;;;;;;;22.20;16.42;;;;;;;15.07;30.98;98959.84;12677593;23;20017;-79
2022/03/17 14:12:22;;;;;;;18.55;15.25;;;;;;;14.94;30.83;98963.88;12749508;23;20065;-80
2022/03/17 14:17:43;;;;;;;16.73;13.63;;;;;;;14.94;31.26;98963.13;12774641;23;20073;-78
2022/03/17 14:28:43;;;;;;;16.80;13.45;;;;;;;14.64;30.79;98975.78;12814334;23;20025;-79
2022/03/17 14:34:05;;;;;;;16.77;13.07;;;;;;;14.62;31.24;98973.56;12786391;23;20036;-76
2022/03/17 14:39:25;;;;;;;15.77;13.02;;;;;;;14.70;30.87;98967.78;12773973;23;20041;-79
2022/03/17 14:44:48;;;;;;;17.17;12.60;;;;;;;14.64;31.05;98964.53;12792866;23;20109;-79
2022/03/17 14:50:10;;;;;;;19.88;12.95;;;;;;;14.48;31.26;98987.34;12793145;23;20013;-79
2022/03/17 14:55:32;;;;;;;18.15;12.60;;;;;;;14.28;31.36;98968.97;12769948;23;20048;-80
2022/03/17 15:00:52;;;;;;;19.13;12.38;;;;;;;14.22;31.62;98968.56;12750303;23;20069;-79
2022/03/17 15:06:17;;;;;;;17.67;12.93;;;;;;;14.17;31.96;98970.31;12735275;23;20068;-79
2022/03/17 15:11:37;;;;;;;15.65;12.38;;;;;;;14.09;32.13;98974.59;12769381;23;20025;-78
2022/03/17 15:17:01;;;;;;;27.40;22.53;;;;;;;13.86;33.62;98970.16;12789821;23;20013;-79
2022/03/17 15:22:24;;;;;;;30.70;20.60;;;;;;;13.81;34.50;98974.00;12747707;23;20025;-80
2022/03/17 15:33:24;;;;;;;30.88;23.70;;;;;;;13.52;35.79;98981.63;12752073;23;20045;-80
2022/03/17 15:38:46;;;;;;;37.72;24.23;;;;;;;13.38;36.71;98984.09;12763581;23;20008;-81
2022/03/17 15:44:12;;;;;;;31.05;24.27;;;;;;;13.32;36.17;98980.84;12791466;23;20078;-81
2022/03/17 15:49:33;;;;;;;34.25;23.77;;;;;;;13.27;36.38;98996.59;12748778;23;20017;-82
2022/03/17 15:54:54;;;;;;;30.30;22.42;;;;;;;13.23;36.73;98996.28;12769071;23;20065;-80
2022/03/17 16:00:18;;;;;;;34.65;22.35;;;;;;;13.12;37.58;98991.94;12789427;23;20049;-82
2022/03/17 16:05:39;;;;;;;24.88;20.45;;;;;;;13.10;37.44;98999.44;12777501;23;20021;-79
2022/03/17 16:16:39;;;;;;;28.23;20.88;;;;;;;12.95;38.03;99000.41;12746041;23;20025;-82
2022/03/17 16:22:00;;;;;;;26.42;20.48;;;;;;;12.89;37.83;99008.31;12737409;23;20083;-79
2022/03/17 16:27:21;;;;;;;29.30;20.13;;;;;;;12.79;37.62;99019.47;12694607;23;20018;-80
2022/03/17 16:32:43;;;;;;;25.83;19.45;;;;;;;12.64;38.04;99010.53;12741149;23;20026;-78
2022/03/17 16:38:04;;;;;;;21.75;15.10;;;;;;;12.54;37.99;99014.00;12737747;23;20017;-79
2022/03/17 16:43:25;;;;;;;17.02;12.32;;;;;;;12.43;37.26;99016.56;12721405;23;20021;-79
2022/03/17 16:48:46;;;;;;;19.02;11.23;;;;;;;12.34;36.82;99020.78;12762613;23;20038;-78
2022/03/17 16:54:10;;;;;;;14.07;11.30;;;;;;;12.24;36.95;99020.69;12790840;23;20024;-79
2022/03/17 16:59:31;;;;;;;17.83;11.47;;;;;;;12.18;36.99;99030.66;12705506;23;20013;-78
2022/03/17 17:04:54;;;;;;;14.93;10.48;;;;;;;12.09;36.91;99045.31;12786936;23;20233;-80
2022/03/17 17:10:16;;;;;;;19.10;12.00;;;;;;;12.05;37.17;99037.31;12782414;23;20033;-80
2022/03/17 17:15:38;;;;;;;16.08;11.13;;;;;;;11.97;37.12;99045.06;12733755;23;20073;-79
2022/03/17 17:20:59;;;;;;;21.10;12.77;;;;;;;11.91;37.13;99050.13;12750750;23;20069;-77
2022/03/17 17:31:59;;;;;;;15.80;11.98;;;;;;;11.82;37.37;99073.16;12713359;23;20033;-77
2022/03/17 17:37:19;;;;;;;20.38;13.38;;;;;;;11.80;37.24;99078.59;12744813;23;20021;-77
2022/03/17 17:42:40;;;;;;;19.45;13.80;;;;;;;11.71;37.33;99083.47;12749023;23;20032;-77
2022/03/17 17:48:01;;;;;;;18.42;13.82;;;;;;;11.68;37.52;99087.41;12742806;23;20017;-76
2022/03/17 17:53:24;;;;;;;21.05;14.38;;;;;;;11.64;37.56;99091.91;12755951;23;20032;-78
2022/03/17 17:58:45;;;;;;;23.23;15.52;;;;;;;11.58;37.76;99099.78;12759488;23;20025;-79
2022/03/17 18:04:06;;;;;;;23.75;15.77;;;;;;;11.54;37.85;99108.56;12772079;23;20028;-81
2022/03/17 18:09:28;;;;;;;27.35;16.75;;;;;;;11.50;38.36;99111.03;12771951;23;20008;-83
2022/03/17 18:14:49;;;;;;;24.00;16.38;;;;;;;11.40;38.37;99110.16;12814801;23;20094;-83
2022/03/17 18:20:10;;;;;;;26.60;17.25;;;;;;;11.31;38.66;99119.16;12773578;23;20064;-81
2022/03/17 18:25:32;;;;;;;22.80;16.17;;;;;;;11.30;38.71;99126.06;12792179;23;20143;-80
2022/03/17 18:30:53;;;;;;;25.65;17.92;;;;;;;11.24;38.96;99137.47;12771212;23;20033;-84
2022/03/17 18:36:14;;;;;;;24.25;17.35;;;;;;;11.22;39.03;99133.75;12775017;23;20026;-82
2022/03/17 18:41:35;;;;;;;23.55;16.23;;;;;;;11.16;39.57;99143.06;12753043;23;20087;-84
2022/03/17 18:46:56;;;;;;;22.30;16.02;;;;;;;11.05;39.04;99163.06;12733042;23;20029;-80
2022/03/17 18:52:17;;;;;;;22.30;15.65;;;;;;;11.01;39.12;99168.31;12753203;23;20001;-82
2022/03/17 18:57:40;;;;;;;22.88;15.73;;;;;;;10.97;39.23;99176.31;12773916;23;20070;-82
2022/03/17 19:03:01;;;;;;;23.90;16.38;;;;;;;10.91;39.28;99195.34;12754447;23;20017;-78
2022/03/17 19:08:22;;;;;;;22.10;15.63;;;;;;;10.94;39.35;99204.66;12702522;23;20017;-77
2022/03/17 19:13:45;;;;;;;23.48;16.45;;;;;;;10.96;39.43;99216.75;12757615;23;20025;-80
2022/03/17 19:19:06;;;;;;;20.08;15.75;;;;;;;10.95;39.23;99222.91;12734528;23;20064;-78
2022/03/17 19:24:27;;;;;;;25.10;16.20;;;;;;;10.96;39.12;99224.38;12714943;23;20026;-81
2022/03/17 19:29:48;;;;;;;25.13;18.73;;;;;;;10.86;39.28;99227.75;12765513;23;20054;-81
2022/03/17 19:35:10;;;;;;;25.85;17.73;;;;;;;10.79;38.90;99227.75;12761800;23;20009;-79
2022/03/17 19:41:08;;;;;;;24.55;17.98;;;;;;;10.67;38.89;99240.63;12771620;23;20065;-81
2022/03/17 19:46:14;;;;;;;25.80;18.63;;;;;;;10.67;38.86;99238.59;12792023;23;20045;-81
2022/03/17 19:51:37;;;;;;;27.33;18.60;;;;;;;10.66;38.48;99253.09;12751261;23;20059;-80
2022/03/17 19:57:01;;;;;;;23.52;16.88;;;;;;;10.64;38.80;99266.88;12791933;23;20017;-78
2022/03/17 20:02:22;;;;;;;25.27;18.10;;;;;;;10.63;38.67;99263.34;12751391;23;20062;-82
2022/03/17 20:08:05;;;;;;;25.05;17.35;;;;;;;10.62;39.03;99281.41;12738137;23;20005;-81
2022/03/17 20:13:44;;;;;;;22.17;16.92;;;;;;;10.65;38.76;99279.53;12791729;23;20049;-80
2022/03/17 20:19:05;;;;;;;23.13;17.52;;;;;;;10.64;38.62;99289.22;12742176;23;20018;-81
2022/03/17 20:24:26;;;;;;;25.30;18.15;;;;;;;10.58;38.75;99292.19;12735148;23;20013;-81
2022/03/17 20:29:47;;;;;;;23.30;17.75;;;;;;;10.50;38.66;99292.19;12795432;23;20057;-81
2022/03/17 20:35:08;;;;;;;25.20;18.27;;;;;;;10.48;38.97;99294.81;12766586;23;20069;-79
2022/03/17 20:40:29;;;;;;;26.52;18.80;;;;;;;10.42;38.89;99301.84;12775821;23;20017;-80
2022/03/17 20:45:50;;;;;;;26.27;18.52;;;;;;;10.34;38.82;99298.34;12755363;23;20100;-81
2022/03/17 20:51:11;;;;;;;28.02;18.05;;;;;;;10.31;39.24;99302.97;12795964;23;20028;-78
2022/03/17 20:56:32;;;;;;;24.55;18.27;;;;;;;10.30;39.05;99301.47;12774715;23;20021;-80
2022/03/17 21:01:53;;;;;;;25.27;18.40;;;;;;;10.22;39.22;99312.63;12771108;23;20017;-79
2022/03/17 21:07:14;;;;;;;25.13;17.92;;;;;;;10.15;39.40;99307.78;12778649;23;20066;-78
2022/03/17 21:12:36;;;;;;;26.63;19.05;;;;;;;10.10;39.56;99321.88;12754362;23;20065;-81
2022/03/17 21:17:58;;;;;;;24.30;17.33;;;;;;;10.16;39.84;99330.84;12775570;23;20022;-79
2022/03/17 21:23:21;;;;;;;27.27;18.70;;;;;;;10.21;39.64;99336.22;12775608;23;20029;-81
2022/03/17 21:28:44;;;;;;;24.30;18.48;;;;;;;10.22;39.68;99345.38;12774223;23;19997;-80
2022/03/17 21:34:05;;;;;;;26.00;18.23;;;;;;;10.21;39.63;99349.44;12769865;23;20045;-81
2022/03/17 21:39:26;;;;;;;25.17;18.65;;;;;;;10.17;39.38;99351.84;12754150;23;20053;-77
2022/03/17 21:44:47;;;;;;;29.17;19.20;;;;;;;10.07;39.44;99362.06;12792717;23;20018;-80
2022/03/17 21:50:08;;;;;;;24.33;17.98;;;;;;;10.00;39.64;99369.09;12731677;23;20052;-80
2022/03/17 21:55:29;;;;;;;25.70;18.67;;;;;;;9.98;39.43;99378.03;12772965;23;20029;-79
2022/03/17 22:00:51;;;;;;;29.05;19.17;;;;;;;9.91;40.02;99373.16;12772331;23;20088;-79
2022/03/17 22:06:11;;;;;;;29.58;20.25;;;;;;;9.87;39.78;99381.13;12739268;23;20077;-77
2022/03/17 22:11:32;;;;;;;24.15;19.98;;;;;;;9.79;39.82;99377.56;12772888;23;20053;-79
2022/03/17 22:16:54;;;;;;;27.73;20.15;;;;;;;9.71;40.24;99396.28;12814234;23;20028;-80
2022/03/17 22:22:35;;;;;;;26.17;19.80;;;;;;;9.62;40.47;99402.38;12740222;23;20024;-78
2022/03/17 22:27:56;;;;;;;30.20;18.77;;;;;;;9.55;40.41;99403.06;12793541;23;20022;-79
2022/03/17 22:33:17;;;;;;;26.83;20.42;;;;;;;9.56;40.67;99407.38;12792157;23;20048;-79
2022/03/17 22:38:38;;;;;;;29.20;21.08;;;;;;;9.54;40.73;99407.91;12753346;23;20044;-79
2022/03/17 22:44:00;;;;;;;25.27;18.58;;;;;;;9.57;41.09;99412.41;12773542;23;20043;-79
2022/03/17 22:49:21;;;;;;;30.45;20.85;;;;;;;9.64;40.45;99417.25;12734357;23;20029;-80
2022/03/17 22:54:42;;;;;;;32.10;22.40;;;;;;;9.66;40.54;99413.94;12733548;23;20041;-80
2022/03/17 23:00:30;;;;;;;28.10;20.50;;;;;;;9.64;41.24;99417.25;12774508;23;20033;-80
2022/03/17 23:05:50;;;;;;;26.98;20.30;;;;;;;9.61;41.13;99412.03;12783406;23;20025;-81
2022/03/17 23:11:11;;;;;;;29.40;19.55;;;;;;;9.52;41.51;99415.34;12753853;23;20021;-81
2022/03/17 23:16:32;;;;;;;29.50;21.23;;;;;;;9.42;41.44;99426.97;12773666;23;20009;-81
2022/03/17 23:21:54;;;;;;;30.38;21.48;;;;;;;9.31;41.98;99429.31;12753514;23;20051;-81
2022/03/17 23:27:15;;;;;;;27.20;21.13;;;;;;;9.22;42.09;99421.44;12773940;23;20044;-78
2022/03/17 23:32:36;;;;;;;25.08;19.00;;;;;;;9.17;42.17;99420.31;12753758;23;20442;-80
2022/03/17 23:37:57;;;;;;;28.20;19.25;;;;;;;9.13;42.42;99431.78;12773125;23;20010;-80
2022/03/17 23:43:18;;;;;;;28.92;20.60;;;;;;;9.05;42.27;99435.78;12774034;23;20021;-78
2022/03/17 23:48:39;;;;;;;30.55;20.60;;;;;;;9.01;42.38;99438.19;12814806;23;20073;-77
2022/03/17 23:54:02;;;;;;;29.60;20.35;;;;;;;8.98;42.83;99439.28;12794652;23;20017;-78
2022/03/17 23:59:23;;;;;;;29.15;20.75;;;;;;;8.94;42.59;99450.72;12794839;23;20001;-78
